Barney Turecamo — WDC6808 — position and weather

sailwx.info

Track history (hours):
 
Tides and Currents Weather Stations Pressure Air Temp Water Temp Dewpoint Dewpoint Depression Visibility Wind Speed Wind Dir Waves Ship Positions

Barney Turecamo

Owner: Moran Towing Corporation, New Canaan, CT. More information available from US FCC via Universal Licensing System and Coast Guard Vessel Documentation Center.

Last reported at 2018-Jul-10 11:48 UTC. Time now 2018-Jul-20 02:43 UTC.
Position N 29°19' W 094°39'.
Warning: this ship's position is 9 days out of date.

Length 156 m; draft 7.5 m.

Type: . MMSI: 367061610.

Date/timePositionNaut miles runAvg speedWind from/ knotsBaromVisibWave heightAir tempDewpointWater temp
2018-Jul-10 11:48N 29°19' W 094°39'3 8.7
2018-Jul-10 11:30N 29°21' W 094°42'4 8.1
2018-Jul-10 11:00N 29°21' W 094°46'10 7.5
2018-Jul-10 09:42N 29°29' W 094°52'1 5.5
2018-Jul-10 09:30N 29°30' W 094°52'4 8.3
2018-Jul-10 09:00N 29°34' W 094°55'5 9.1
2018-Jul-10 08:30N 29°38' W 094°58'5 8.8
2018-Jul-10 07:59N 29°42' W 094°60'4 7.9
2018-Jul-10 07:27N 29°44' W 095°04'2 0.1
2018-Jul-09 14:21N 29°45' W 095°06'0 0.0
2018-Jul-09 13:48N 29°45' W 095°06'0 0.0
2018-Jul-09 04:57N 29°45' W 095°06'0 0.0
2018-Jul-09 04:27N 29°45' W 095°06'0 0.0
2018-Jul-08 17:06N 29°45' W 095°06'0 0.0
2018-Jul-08 12:00N 29°45' W 095°06'0 0.0
2018-Jul-08 10:57N 29°45' W 095°06'0 0.0
2018-Jul-08 08:57N 29°45' W 095°06'0 0.0
2018-Jul-08 08:24N 29°45' W 095°06'0 0.0
2018-Jul-08 05:42N 29°45' W 095°06'0 0.0
2018-Jul-08 03:51N 29°45' W 095°06'0 0.0
2018-Jul-07 15:06N 29°45' W 095°06'0 0.0
2018-Jul-07 14:57N 29°45' W 095°06'0 0.0
2018-Jul-07 14:12N 29°45' W 095°06'0 0.5
2018-Jul-07 13:57N 29°45' W 095°06'2 3.5
2018-Jul-07 13:30N 29°46' W 095°05'4 7.1
2018-Jul-07 12:59N 29°44' W 095°01'3 7.2
2018-Jul-07 12:30N 29°41' W 094°59'5 9.0
2018-Jul-07 12:00N 29°37' W 094°57'5 9.1
2018-Jul-07 11:30N 29°33' W 094°54'4 8.8
2018-Jul-07 11:00N 29°29' W 094°52'5 8.4
2018-Jul-07 10:25N 29°24' W 094°49'4 9.5
2018-Jul-07 09:59N 29°21' W 094°47'1 0.2
2018-Jul-07 05:53N 29°21' W 094°46'0 0.1
2018-Jul-07 03:20N 29°21' W 094°46'1 1.7
2018-Jul-07 02:57N 29°21' W 094°45'  
Track history (hours):
 
Tides and Currents Weather Stations Pressure Air Temp Water Temp Dewpoint Dewpoint Depression Visibility Wind Speed Wind Dir Waves Ship Positions

Barney Turecamo

Owner: Moran Towing Corporation, New Canaan, CT. More information available from US FCC via Universal Licensing System and Coast Guard Vessel Documentation Center.

Last reported at 2018-Jul-10 11:48 UTC. Time now 2018-Jul-20 02:43 UTC.
Position N 29°19' W 094°39'.
Warning: this ship's position is 9 days out of date.

Length 156 m; draft 7.5 m.

Type: . MMSI: 367061610.

Date/timePositionNaut miles runAvg speedWind from/ knotsBaromVisibWave heightAir tempDewpointWater temp
2018-Jul-10 11:48N 29°19' W 094°39'3 8.7
2018-Jul-10 11:30N 29°21' W 094°42'4 8.1
2018-Jul-10 11:00N 29°21' W 094°46'10 7.5
2018-Jul-10 09:42N 29°29' W 094°52'1 5.5
2018-Jul-10 09:30N 29°30' W 094°52'4 8.3
2018-Jul-10 09:00N 29°34' W 094°55'5 9.1
2018-Jul-10 08:30N 29°38' W 094°58'5 8.8
2018-Jul-10 07:59N 29°42' W 094°60'4 7.9
2018-Jul-10 07:27N 29°44' W 095°04'2 0.1
2018-Jul-09 14:21N 29°45' W 095°06'0 0.0
2018-Jul-09 13:48N 29°45' W 095°06'0 0.0
2018-Jul-09 04:57N 29°45' W 095°06'0 0.0
2018-Jul-09 04:27N 29°45' W 095°06'0 0.0
2018-Jul-08 17:06N 29°45' W 095°06'0 0.0
2018-Jul-08 12:00N 29°45' W 095°06'0 0.0
2018-Jul-08 10:57N 29°45' W 095°06'0 0.0
2018-Jul-08 08:57N 29°45' W 095°06'0 0.0
2018-Jul-08 08:24N 29°45' W 095°06'0 0.0
2018-Jul-08 05:42N 29°45' W 095°06'0 0.0
2018-Jul-08 03:51N 29°45' W 095°06'0 0.0
2018-Jul-07 15:06N 29°45' W 095°06'0 0.0
2018-Jul-07 14:57N 29°45' W 095°06'0 0.0
2018-Jul-07 14:12N 29°45' W 095°06'0 0.5
2018-Jul-07 13:57N 29°45' W 095°06'2 3.5
2018-Jul-07 13:30N 29°46' W 095°05'4 7.1
2018-Jul-07 12:59N 29°44' W 095°01'3 7.2
2018-Jul-07 12:30N 29°41' W 094°59'5 9.0
2018-Jul-07 12:00N 29°37' W 094°57'5 9.1
2018-Jul-07 11:30N 29°33' W 094°54'4 8.8
2018-Jul-07 11:00N 29°29' W 094°52'5 8.4
2018-Jul-07 10:25N 29°24' W 094°49'4 9.5
2018-Jul-07 09:59N 29°21' W 094°47'1 0.2
2018-Jul-07 05:53N 29°21' W 094°46'0 0.1
2018-Jul-07 03:20N 29°21' W 094°46'1 1.7
2018-Jul-07 02:57N 29°21' W 094°45'  

Dump ship's entire track history